sensor_id;sensor_type;location;lat;lon;timestamp;P1;durP1;ratioP1;P2;durP2;ratioP2
24521;SDS011;12680;57.804;12.190;2024-02-15T00:00:52;12.85;;;4.88;;
24521;SDS011;12680;57.804;12.190;2024-02-15T00:03:19;12.40;;;5.18;;
24521;SDS011;12680;57.804;12.190;2024-02-15T00:05:47;18.23;;;5.55;;
24521;SDS011;12680;57.804;12.190;2024-02-15T00:08:15;75.07;;;6.18;;
24521;SDS011;12680;57.804;12.190;2024-02-15T00:10:42;21.85;;;5.95;;
24521;SDS011;12680;57.804;12.190;2024-02-15T00:13:10;21.17;;;6.57;;
24521;SDS011;12680;57.804;12.190;2024-02-15T00:15:36;22.92;;;6.22;;
24521;SDS011;12680;57.804;12.190;2024-02-15T00:18:03;8.75;;;4.47;;
24521;SDS011;12680;57.804;12.190;2024-02-15T00:20:31;9.70;;;4.72;;
24521;SDS011;12680;57.804;12.190;2024-02-15T00:23:00;13.32;;;5.55;;
24521;SDS011;12680;57.804;12.190;2024-02-15T00:25:27;10.85;;;5.70;;
24521;SDS011;12680;57.804;12.190;2024-02-15T00:27:54;22.40;;;6.20;;
24521;SDS011;12680;57.804;12.190;2024-02-15T00:30:21;12.25;;;5.68;;
24521;SDS011;12680;57.804;12.190;2024-02-15T00:32:48;10.60;;;5.18;;
24521;SDS011;12680;57.804;12.190;2024-02-15T00:35:15;11.60;;;4.50;;
24521;SDS011;12680;57.804;12.190;2024-02-15T00:37:43;10.20;;;4.93;;
24521;SDS011;12680;57.804;12.190;2024-02-15T00:40:11;10.15;;;5.53;;
24521;SDS011;12680;57.804;12.190;2024-02-15T00:42:37;7.18;;;4.40;;
24521;SDS011;12680;57.804;12.190;2024-02-15T00:45:05;8.35;;;4.60;;
24521;SDS011;12680;57.804;12.190;2024-02-15T00:47:36;7.65;;;4.10;;
24521;SDS011;12680;57.804;12.190;2024-02-15T00:50:04;8.20;;;3.88;;
24521;SDS011;12680;57.804;12.190;2024-02-15T00:52:32;6.38;;;3.40;;
24521;SDS011;12680;57.804;12.190;2024-02-15T00:54:59;6.35;;;3.80;;
24521;SDS011;12680;57.804;12.190;2024-02-15T00:57:25;5.28;;;3.25;;
24521;SDS011;12680;57.804;12.190;2024-02-15T00:59:52;7.32;;;4.22;;
24521;SDS011;12680;57.804;12.190;2024-02-15T01:02:19;8.23;;;4.03;;
24521;SDS011;12680;57.804;12.190;2024-02-15T01:04:46;6.90;;;3.85;;
24521;SDS011;12680;57.804;12.190;2024-02-15T01:07:13;6.47;;;3.90;;
24521;SDS011;12680;57.804;12.190;2024-02-15T01:09:40;6.18;;;3.67;;
24521;SDS011;12680;57.804;12.190;2024-02-15T01:12:07;6.88;;;4.18;;
24521;SDS011;12680;57.804;12.190;2024-02-15T01:14:34;6.80;;;4.30;;
24521;SDS011;12680;57.804;12.190;2024-02-15T01:17:01;8.60;;;4.13;;
24521;SDS011;12680;57.804;12.190;2024-02-15T01:19:27;7.13;;;4.03;;
24521;SDS011;12680;57.804;12.190;2024-02-15T01:21:55;9.05;;;4.32;;
24521;SDS011;12680;57.804;12.190;2024-02-15T01:24:24;10.05;;;4.28;;
24521;SDS011;12680;57.804;12.190;2024-02-15T01:26:51;8.52;;;4.38;;
24521;SDS011;12680;57.804;12.190;2024-02-15T01:29:19;6.72;;;3.85;;
24521;SDS011;12680;57.804;12.190;2024-02-15T01:31:46;7.35;;;4.25;;
24521;SDS011;12680;57.804;12.190;2024-02-15T01:34:13;7.65;;;4.68;;
24521;SDS011;12680;57.804;12.190;2024-02-15T01:36:40;6.60;;;4.32;;
24521;SDS011;12680;57.804;12.190;2024-02-15T01:39:07;27.85;;;5.57;;
24521;SDS011;12680;57.804;12.190;2024-02-15T01:41:34;41.85;;;5.97;;
24521;SDS011;12680;57.804;12.190;2024-02-15T01:44:01;78.28;;;6.25;;
24521;SDS011;12680;57.804;12.190;2024-02-15T01:46:28;63.40;;;5.07;;
24521;SDS011;12680;57.804;12.190;2024-02-15T01:48:56;74.70;;;5.65;;
24521;SDS011;12680;57.804;12.190;2024-02-15T01:51:23;46.97;;;4.75;;
24521;SDS011;12680;57.804;12.190;2024-02-15T01:53:51;82.25;;;5.53;;
24521;SDS011;12680;57.804;12.190;2024-02-15T01:56:20;65.80;;;5.50;;
24521;SDS011;12680;57.804;12.190;2024-02-15T01:58:49;58.92;;;5.53;;
24521;SDS011;12680;57.804;12.190;2024-02-15T02:01:16;109.18;;;6.28;;
24521;SDS011;12680;57.804;12.190;2024-02-15T02:03:43;46.08;;;5.43;;
24521;SDS011;12680;57.804;12.190;2024-02-15T02:06:11;64.35;;;5.55;;
24521;SDS011;12680;57.804;12.190;2024-02-15T02:08:38;28.77;;;5.38;;
24521;SDS011;12680;57.804;12.190;2024-02-15T02:11:05;22.08;;;5.72;;
24521;SDS011;12680;57.804;12.190;2024-02-15T02:13:32;13.32;;;5.45;;
24521;SDS011;12680;57.804;12.190;2024-02-15T02:15:59;12.40;;;5.95;;
24521;SDS011;12680;57.804;12.190;2024-02-15T02:18:26;13.38;;;5.00;;
24521;SDS011;12680;57.804;12.190;2024-02-15T02:20:53;11.38;;;4.78;;
24521;SDS011;12680;57.804;12.190;2024-02-15T02:23:21;11.88;;;4.88;;
24521;SDS011;12680;57.804;12.190;2024-02-15T02:25:52;24.08;;;4.18;;
24521;SDS011;12680;57.804;12.190;2024-02-15T02:28:21;49.63;;;4.85;;
24521;SDS011;12680;57.804;12.190;2024-02-15T02:30:48;37.03;;;5.78;;
24521;SDS011;12680;57.804;12.190;2024-02-15T02:33:16;50.95;;;5.30;;
24521;SDS011;12680;57.804;12.190;2024-02-15T02:35:49;15.90;;;5.57;;
24521;SDS011;12680;57.804;12.190;2024-02-15T02:38:16;10.32;;;4.85;;
24521;SDS011;12680;57.804;12.190;2024-02-15T02:40:43;10.52;;;4.50;;
24521;SDS011;12680;57.804;12.190;2024-02-15T02:43:09;11.25;;;4.95;;
24521;SDS011;12680;57.804;12.190;2024-02-15T02:45:36;6.72;;;3.95;;
24521;SDS011;12680;57.804;12.190;2024-02-15T02:48:04;6.53;;;3.63;;
24521;SDS011;12680;57.804;12.190;2024-02-15T02:50:32;7.53;;;3.88;;
24521;SDS011;12680;57.804;12.190;2024-02-15T02:52:59;7.75;;;3.78;;
24521;SDS011;12680;57.804;12.190;2024-02-15T02:55:26;7.28;;;4.30;;
24521;SDS011;12680;57.804;12.190;2024-02-15T02:57:57;4.35;;;3.00;;
24521;SDS011;12680;57.804;12.190;2024-02-15T03:00:23;6.50;;;4.03;;
24521;SDS011;12680;57.804;12.190;2024-02-15T03:02:50;7.22;;;4.15;;
24521;SDS011;12680;57.804;12.190;2024-02-15T03:05:17;5.93;;;3.55;;
24521;SDS011;12680;57.804;12.190;2024-02-15T03:07:47;7.45;;;3.90;;
24521;SDS011;12680;57.804;12.190;2024-02-15T03:10:15;6.38;;;3.75;;
24521;SDS011;12680;57.804;12.190;2024-02-15T03:12:41;7.82;;;3.97;;
24521;SDS011;12680;57.804;12.190;2024-02-15T03:15:15;6.97;;;3.95;;
24521;SDS011;12680;57.804;12.190;2024-02-15T03:17:45;5.97;;;3.80;;
24521;SDS011;12680;57.804;12.190;2024-02-15T03:22:44;7.28;;;3.75;;
24521;SDS011;12680;57.804;12.190;2024-02-15T03:25:11;7.07;;;3.67;;
24521;SDS011;12680;57.804;12.190;2024-02-15T03:27:38;8.48;;;4.57;;
24521;SDS011;12680;57.804;12.190;2024-02-15T03:30:05;9.05;;;4.07;;
24521;SDS011;12680;57.804;12.190;2024-02-15T03:32:32;31.42;;;4.65;;
24521;SDS011;12680;57.804;12.190;2024-02-15T03:34:59;18.92;;;4.75;;
24521;SDS011;12680;57.804;12.190;2024-02-15T03:37:27;7.50;;;4.07;;
24521;SDS011;12680;57.804;12.190;2024-02-15T03:39:54;36.60;;;5.20;;
24521;SDS011;12680;57.804;12.190;2024-02-15T03:42:21;33.97;;;4.85;;
24521;SDS011;12680;57.804;12.190;2024-02-15T03:44:47;50.95;;;5.68;;
24521;SDS011;12680;57.804;12.190;2024-02-15T03:47:14;32.33;;;4.88;;
24521;SDS011;12680;57.804;12.190;2024-02-15T03:49:42;12.00;;;4.50;;
24521;SDS011;12680;57.804;12.190;2024-02-15T03:52:09;20.65;;;5.00;;
24521;SDS011;12680;57.804;12.190;2024-02-15T03:54:36;14.38;;;4.90;;
24521;SDS011;12680;57.804;12.190;2024-02-15T03:57:03;37.50;;;5.10;;
24521;SDS011;12680;57.804;12.190;2024-02-15T03:59:32;8.75;;;4.53;;
24521;SDS011;12680;57.804;12.190;2024-02-15T04:02:01;8.90;;;4.30;;
24521;SDS011;12680;57.804;12.190;2024-02-15T04:04:29;7.93;;;4.15;;
24521;SDS011;12680;57.804;12.190;2024-02-15T04:06:57;5.93;;;3.90;;
24521;SDS011;12680;57.804;12.190;2024-02-15T04:09:24;6.68;;;3.80;;
24521;SDS011;12680;57.804;12.190;2024-02-15T04:11:51;9.75;;;4.00;;
24521;SDS011;12680;57.804;12.190;2024-02-15T04:14:19;9.30;;;4.47;;
24521;SDS011;12680;57.804;12.190;2024-02-15T04:16:46;19.25;;;4.55;;
24521;SDS011;12680;57.804;12.190;2024-02-15T04:19:14;11.60;;;4.43;;
24521;SDS011;12680;57.804;12.190;2024-02-15T04:21:41;14.13;;;4.75;;
24521;SDS011;12680;57.804;12.190;2024-02-15T04:24:10;10.25;;;4.65;;
24521;SDS011;12680;57.804;12.190;2024-02-15T04:26:37;6.78;;;3.72;;
24521;SDS011;12680;57.804;12.190;2024-02-15T04:29:05;7.38;;;4.03;;
24521;SDS011;12680;57.804;12.190;2024-02-15T04:31:35;5.40;;;3.70;;
24521;SDS011;12680;57.804;12.190;2024-02-15T04:34:05;6.32;;;3.15;;
24521;SDS011;12680;57.804;12.190;2024-02-15T04:36:32;4.93;;;3.28;;
24521;SDS011;12680;57.804;12.190;2024-02-15T04:39:00;5.07;;;2.80;;
24521;SDS011;12680;57.804;12.190;2024-02-15T04:41:29;4.47;;;3.35;;
24521;SDS011;12680;57.804;12.190;2024-02-15T04:43:56;6.10;;;3.80;;
24521;SDS011;12680;57.804;12.190;2024-02-15T04:46:23;4.75;;;3.58;;
24521;SDS011;12680;57.804;12.190;2024-02-15T04:48:50;4.38;;;2.97;;
24521;SDS011;12680;57.804;12.190;2024-02-15T04:51:17;4.95;;;3.55;;
24521;SDS011;12680;57.804;12.190;2024-02-15T04:53:46;5.45;;;3.47;;
24521;SDS011;12680;57.804;12.190;2024-02-15T04:56:14;7.53;;;4.30;;
24521;SDS011;12680;57.804;12.190;2024-02-15T04:58:42;5.47;;;3.83;;
24521;SDS011;12680;57.804;12.190;2024-02-15T05:01:12;6.40;;;3.90;;
24521;SDS011;12680;57.804;12.190;2024-02-15T05:03:40;6.10;;;4.05;;
24521;SDS011;12680;57.804;12.190;2024-02-15T05:06:08;5.00;;;3.70;;
24521;SDS011;12680;57.804;12.190;2024-02-15T05:08:36;7.25;;;4.43;;
24521;SDS011;12680;57.804;12.190;2024-02-15T05:11:11;7.18;;;4.43;;
24521;SDS011;12680;57.804;12.190;2024-02-15T05:13:46;9.07;;;5.35;;
24521;SDS011;12680;57.804;12.190;2024-02-15T05:16:13;5.88;;;4.00;;
24521;SDS011;12680;57.804;12.190;2024-02-15T05:18:40;6.60;;;4.53;;
24521;SDS011;12680;57.804;12.190;2024-02-15T05:21:07;7.53;;;4.70;;
24521;SDS011;12680;57.804;12.190;2024-02-15T05:23:37;7.53;;;4.90;;
24521;SDS011;12680;57.804;12.190;2024-02-15T05:26:06;10.45;;;4.43;;
24521;SDS011;12680;57.804;12.190;2024-02-15T05:28:33;6.68;;;4.65;;
24521;SDS011;12680;57.804;12.190;2024-02-15T05:31:14;7.28;;;4.38;;
24521;SDS011;12680;57.804;12.190;2024-02-15T05:33:46;8.13;;;4.88;;
24521;SDS011;12680;57.804;12.190;2024-02-15T05:36:14;8.35;;;5.30;;
24521;SDS011;12680;57.804;12.190;2024-02-15T05:38:51;7.30;;;4.38;;
24521;SDS011;12680;57.804;12.190;2024-02-15T05:41:18;6.80;;;4.63;;
24521;SDS011;12680;57.804;12.190;2024-02-15T05:43:47;8.10;;;4.38;;
24521;SDS011;12680;57.804;12.190;2024-02-15T05:46:20;5.70;;;4.03;;
24521;SDS011;12680;57.804;12.190;2024-02-15T05:48:49;9.00;;;4.75;;
24521;SDS011;12680;57.804;12.190;2024-02-15T05:51:21;6.70;;;3.80;;
24521;SDS011;12680;57.804;12.190;2024-02-15T05:53:48;7.60;;;3.92;;
24521;SDS011;12680;57.804;12.190;2024-02-15T05:56:16;6.32;;;3.92;;
24521;SDS011;12680;57.804;12.190;2024-02-15T05:58:43;7.38;;;4.20;;
24521;SDS011;12680;57.804;12.190;2024-02-15T06:01:10;5.40;;;3.72;;
24521;SDS011;12680;57.804;12.190;2024-02-15T06:03:39;7.82;;;4.68;;
24521;SDS011;12680;57.804;12.190;2024-02-15T06:06:08;10.60;;;5.40;;
24521;SDS011;12680;57.804;12.190;2024-02-15T06:08:36;9.18;;;5.00;;
24521;SDS011;12680;57.804;12.190;2024-02-15T06:11:03;10.10;;;5.72;;
24521;SDS011;12680;57.804;12.190;2024-02-15T06:13:34;9.70;;;5.38;;
24521;SDS011;12680;57.804;12.190;2024-02-15T06:16:01;9.18;;;5.47;;
24521;SDS011;12680;57.804;12.190;2024-02-15T06:18:28;9.65;;;5.00;;
24521;SDS011;12680;57.804;12.190;2024-02-15T06:20:56;9.70;;;5.40;;
24521;SDS011;12680;57.804;12.190;2024-02-15T06:23:23;8.98;;;5.80;;
24521;SDS011;12680;57.804;12.190;2024-02-15T06:25:52;9.35;;;5.90;;
24521;SDS011;12680;57.804;12.190;2024-02-15T06:28:20;9.43;;;5.57;;
24521;SDS011;12680;57.804;12.190;2024-02-15T06:31:07;9.05;;;5.43;;
24521;SDS011;12680;57.804;12.190;2024-02-15T06:33:53;13.18;;;7.30;;
24521;SDS011;12680;57.804;12.190;2024-02-15T06:36:45;13.85;;;7.22;;
24521;SDS011;12680;57.804;12.190;2024-02-15T06:39:32;9.45;;;5.57;;
24521;SDS011;12680;57.804;12.190;2024-02-15T06:42:10;14.50;;;7.70;;
24521;SDS011;12680;57.804;12.190;2024-02-15T06:44:45;11.40;;;6.15;;
24521;SDS011;12680;57.804;12.190;2024-02-15T06:47:13;12.43;;;5.70;;
24521;SDS011;12680;57.804;12.190;2024-02-15T06:49:43;11.00;;;6.93;;
24521;SDS011;12680;57.804;12.190;2024-02-15T06:52:12;13.50;;;6.65;;
24521;SDS011;12680;57.804;12.190;2024-02-15T06:54:40;11.18;;;6.60;;
24521;SDS011;12680;57.804;12.190;2024-02-15T06:57:08;11.50;;;6.40;;
24521;SDS011;12680;57.804;12.190;2024-02-15T06:59:36;13.13;;;6.88;;
24521;SDS011;12680;57.804;12.190;2024-02-15T07:02:05;16.33;;;6.60;;
24521;SDS011;12680;57.804;12.190;2024-02-15T07:04:34;11.18;;;6.53;;
24521;SDS011;12680;57.804;12.190;2024-02-15T07:07:03;14.40;;;6.88;;
24521;SDS011;12680;57.804;12.190;2024-02-15T07:09:30;10.75;;;6.80;;
24521;SDS011;12680;57.804;12.190;2024-02-15T07:11:57;11.90;;;6.45;;
24521;SDS011;12680;57.804;12.190;2024-02-15T07:14:25;13.98;;;8.27;;
24521;SDS011;12680;57.804;12.190;2024-02-15T07:16:54;13.77;;;7.75;;
24521;SDS011;12680;57.804;12.190;2024-02-15T07:19:24;12.40;;;7.27;;
24521;SDS011;12680;57.804;12.190;2024-02-15T07:21:54;13.25;;;7.43;;
24521;SDS011;12680;57.804;12.190;2024-02-15T07:24:22;11.80;;;6.75;;
24521;SDS011;12680;57.804;12.190;2024-02-15T07:26:53;14.50;;;7.30;;
24521;SDS011;12680;57.804;12.190;2024-02-15T07:29:21;12.77;;;6.75;;
24521;SDS011;12680;57.804;12.190;2024-02-15T07:31:52;9.65;;;5.85;;
24521;SDS011;12680;57.804;12.190;2024-02-15T07:34:19;12.18;;;7.82;;
24521;SDS011;12680;57.804;12.190;2024-02-15T07:36:47;11.55;;;5.97;;
24521;SDS011;12680;57.804;12.190;2024-02-15T07:39:13;14.75;;;7.40;;
24521;SDS011;12680;57.804;12.190;2024-02-15T07:41:50;10.18;;;6.43;;
24521;SDS011;12680;57.804;12.190;2024-02-15T07:44:18;11.90;;;6.50;;
24521;SDS011;12680;57.804;12.190;2024-02-15T07:46:45;11.82;;;6.53;;
24521;SDS011;12680;57.804;12.190;2024-02-15T07:49:12;13.15;;;7.00;;
24521;SDS011;12680;57.804;12.190;2024-02-15T07:51:40;11.50;;;6.53;;
24521;SDS011;12680;57.804;12.190;2024-02-15T07:54:06;14.02;;;7.28;;
24521;SDS011;12680;57.804;12.190;2024-02-15T07:56:33;12.27;;;6.63;;
24521;SDS011;12680;57.804;12.190;2024-02-15T07:59:01;13.82;;;7.18;;
24521;SDS011;12680;57.804;12.190;2024-02-15T08:01:29;14.20;;;7.45;;
24521;SDS011;12680;57.804;12.190;2024-02-15T08:03:57;12.82;;;7.30;;
24521;SDS011;12680;57.804;12.190;2024-02-15T08:06:24;11.73;;;6.95;;
24521;SDS011;12680;57.804;12.190;2024-02-15T08:08:53;12.80;;;7.35;;
24521;SDS011;12680;57.804;12.190;2024-02-15T08:11:20;11.00;;;6.88;;
24521;SDS011;12680;57.804;12.190;2024-02-15T08:13:47;12.30;;;7.05;;
24521;SDS011;12680;57.804;12.190;2024-02-15T08:16:16;15.68;;;7.53;;
24521;SDS011;12680;57.804;12.190;2024-02-15T08:18:50;12.93;;;7.30;;
24521;SDS011;12680;57.804;12.190;2024-02-15T08:21:28;13.57;;;7.50;;
24521;SDS011;12680;57.804;12.190;2024-02-15T08:23:57;13.30;;;7.15;;
24521;SDS011;12680;57.804;12.190;2024-02-15T08:26:25;14.77;;;7.80;;
24521;SDS011;12680;57.804;12.190;2024-02-15T08:28:52;12.38;;;6.90;;
24521;SDS011;12680;57.804;12.190;2024-02-15T08:31:20;14.35;;;7.88;;
24521;SDS011;12680;57.804;12.190;2024-02-15T08:33:47;13.32;;;6.82;;
24521;SDS011;12680;57.804;12.190;2024-02-15T08:36:15;13.85;;;7.28;;
24521;SDS011;12680;57.804;12.190;2024-02-15T08:38:42;13.57;;;7.22;;
24521;SDS011;12680;57.804;12.190;2024-02-15T08:41:09;14.60;;;7.50;;
24521;SDS011;12680;57.804;12.190;2024-02-15T08:43:38;12.32;;;7.07;;
24521;SDS011;12680;57.804;12.190;2024-02-15T08:46:06;10.57;;;6.47;;
24521;SDS011;12680;57.804;12.190;2024-02-15T08:48:33;12.10;;;6.88;;
24521;SDS011;12680;57.804;12.190;2024-02-15T08:51:02;11.40;;;6.72;;
24521;SDS011;12680;57.804;12.190;2024-02-15T08:53:29;13.40;;;6.90;;
24521;SDS011;12680;57.804;12.190;2024-02-15T08:55:59;14.68;;;7.50;;
24521;SDS011;12680;57.804;12.190;2024-02-15T08:58:27;13.13;;;6.75;;
24521;SDS011;12680;57.804;12.190;2024-02-15T09:00:56;11.18;;;6.25;;
24521;SDS011;12680;57.804;12.190;2024-02-15T09:03:24;11.23;;;6.88;;
24521;SDS011;12680;57.804;12.190;2024-02-15T09:05:51;12.18;;;6.68;;
24521;SDS011;12680;57.804;12.190;2024-02-15T09:08:18;12.35;;;7.30;;
24521;SDS011;12680;57.804;12.190;2024-02-15T09:10:51;12.18;;;6.95;;
24521;SDS011;12680;57.804;12.190;2024-02-15T09:13:20;12.40;;;7.00;;
24521;SDS011;12680;57.804;12.190;2024-02-15T09:15:46;13.60;;;6.97;;
24521;SDS011;12680;57.804;12.190;2024-02-15T09:18:13;12.00;;;6.80;;
24521;SDS011;12680;57.804;12.190;2024-02-15T09:20:41;12.00;;;6.90;;
24521;SDS011;12680;57.804;12.190;2024-02-15T09:23:11;10.90;;;6.28;;
24521;SDS011;12680;57.804;12.190;2024-02-15T09:25:38;10.85;;;6.10;;
24521;SDS011;12680;57.804;12.190;2024-02-15T09:28:05;10.82;;;6.35;;
24521;SDS011;12680;57.804;12.190;2024-02-15T09:30:32;10.88;;;6.18;;
24521;SDS011;12680;57.804;12.190;2024-02-15T09:33:02;9.80;;;5.72;;
24521;SDS011;12680;57.804;12.190;2024-02-15T09:35:31;11.75;;;5.97;;
24521;SDS011;12680;57.804;12.190;2024-02-15T09:37:58;10.23;;;5.85;;
24521;SDS011;12680;57.804;12.190;2024-02-15T09:40:25;11.90;;;6.45;;
24521;SDS011;12680;57.804;12.190;2024-02-15T09:42:55;8.90;;;5.63;;
24521;SDS011;12680;57.804;12.190;2024-02-15T09:45:22;10.70;;;5.60;;
24521;SDS011;12680;57.804;12.190;2024-02-15T09:47:51;10.13;;;6.50;;
24521;SDS011;12680;57.804;12.190;2024-02-15T09:50:19;10.32;;;6.35;;
24521;SDS011;12680;57.804;12.190;2024-02-15T09:55:18;11.10;;;7.00;;
24521;SDS011;12680;57.804;12.190;2024-02-15T09:57:49;12.10;;;7.15;;
24521;SDS011;12680;57.804;12.190;2024-02-15T10:00:16;13.55;;;7.72;;
24521;SDS011;12680;57.804;12.190;2024-02-15T10:02:46;15.13;;;8.18;;
24521;SDS011;12680;57.804;12.190;2024-02-15T10:05:14;12.07;;;7.60;;
24521;SDS011;12680;57.804;12.190;2024-02-15T10:07:42;13.30;;;7.80;;
24521;SDS011;12680;57.804;12.190;2024-02-15T10:12:47;13.40;;;7.53;;
24521;SDS011;12680;57.804;12.190;2024-02-15T10:15:26;11.70;;;7.22;;
24521;SDS011;12680;57.804;12.190;2024-02-15T10:18:00;13.38;;;7.45;;
24521;SDS011;12680;57.804;12.190;2024-02-15T10:20:32;12.15;;;6.85;;
24521;SDS011;12680;57.804;12.190;2024-02-15T10:25:35;13.15;;;6.47;;
24521;SDS011;12680;57.804;12.190;2024-02-15T10:28:06;12.68;;;7.30;;
24521;SDS011;12680;57.804;12.190;2024-02-15T10:30:38;10.82;;;6.35;;
24521;SDS011;12680;57.804;12.190;2024-02-15T10:33:06;8.63;;;5.53;;
24521;SDS011;12680;57.804;12.190;2024-02-15T10:35:36;7.88;;;5.43;;
24521;SDS011;12680;57.804;12.190;2024-02-15T10:38:10;8.88;;;5.47;;
24521;SDS011;12680;57.804;12.190;2024-02-15T10:40:37;10.57;;;5.28;;
24521;SDS011;12680;57.804;12.190;2024-02-15T10:43:08;7.13;;;5.05;;
24521;SDS011;12680;57.804;12.190;2024-02-15T10:45:40;8.68;;;5.15;;
24521;SDS011;12680;57.804;12.190;2024-02-15T10:48:07;7.90;;;4.68;;
24521;SDS011;12680;57.804;12.190;2024-02-15T10:50:36;9.30;;;5.20;;
24521;SDS011;12680;57.804;12.190;2024-02-15T10:58:33;6.70;;;4.57;;
24521;SDS011;12680;57.804;12.190;2024-02-15T11:01:06;8.85;;;4.80;;
24521;SDS011;12680;57.804;12.190;2024-02-15T11:03:35;8.70;;;5.32;;
24521;SDS011;12680;57.804;12.190;2024-02-15T11:06:07;6.45;;;4.30;;
24521;SDS011;12680;57.804;12.190;2024-02-15T11:08:36;6.22;;;4.50;;
24521;SDS011;12680;57.804;12.190;2024-02-15T11:11:05;6.45;;;4.32;;
24521;SDS011;12680;57.804;12.190;2024-02-15T11:13:33;6.78;;;4.07;;
24521;SDS011;12680;57.804;12.190;2024-02-15T11:16:00;5.32;;;4.25;;
24521;SDS011;12680;57.804;12.190;2024-02-15T11:21:21;5.63;;;3.95;;
24521;SDS011;12680;57.804;12.190;2024-02-15T11:24:25;7.55;;;3.88;;
24521;SDS011;12680;57.804;12.190;2024-02-15T11:26:57;5.60;;;4.20;;
24521;SDS011;12680;57.804;12.190;2024-02-15T11:35:12;4.53;;;3.10;;
24521;SDS011;12680;57.804;12.190;2024-02-15T11:43:09;7.57;;;6.43;;
24521;SDS011;12680;57.804;12.190;2024-02-15T11:45:37;6.78;;;3.70;;
24521;SDS011;12680;57.804;12.190;2024-02-15T11:48:08;4.23;;;3.40;;
24521;SDS011;12680;57.804;12.190;2024-02-15T11:50:40;5.05;;;3.22;;
24521;SDS011;12680;57.804;12.190;2024-02-15T11:53:08;5.35;;;3.53;;
24521;SDS011;12680;57.804;12.190;2024-02-15T11:55:37;5.05;;;3.60;;
24521;SDS011;12680;57.804;12.190;2024-02-15T11:58:05;4.65;;;3.30;;
24521;SDS011;12680;57.804;12.190;2024-02-15T12:00:34;4.30;;;3.40;;
24521;SDS011;12680;57.804;12.190;2024-02-15T12:03:19;4.10;;;3.30;;
24521;SDS011;12680;57.804;12.190;2024-02-15T12:06:17;4.55;;;3.45;;
24521;SDS011;12680;57.804;12.190;2024-02-15T12:09:03;5.65;;;3.53;;
24521;SDS011;12680;57.804;12.190;2024-02-15T12:11:57;4.50;;;3.58;;
24521;SDS011;12680;57.804;12.190;2024-02-15T12:14:43;4.50;;;3.10;;
24521;SDS011;12680;57.804;12.190;2024-02-15T12:17:29;4.22;;;3.22;;
24521;SDS011;12680;57.804;12.190;2024-02-15T12:20:14;3.92;;;3.13;;
24521;SDS011;12680;57.804;12.190;2024-02-15T12:22:46;4.38;;;3.42;;
24521;SDS011;12680;57.804;12.190;2024-02-15T12:25:15;4.53;;;3.25;;
24521;SDS011;12680;57.804;12.190;2024-02-15T12:27:43;4.28;;;2.92;;
24521;SDS011;12680;57.804;12.190;2024-02-15T12:30:14;5.43;;;3.70;;
24521;SDS011;12680;57.804;12.190;2024-02-15T12:32:42;5.15;;;3.40;;
24521;SDS011;12680;57.804;12.190;2024-02-15T12:35:09;5.70;;;3.40;;
24521;SDS011;12680;57.804;12.190;2024-02-15T12:37:43;5.00;;;3.50;;
24521;SDS011;12680;57.804;12.190;2024-02-15T12:40:15;5.10;;;3.13;;
24521;SDS011;12680;57.804;12.190;2024-02-15T12:42:44;4.70;;;3.83;;
24521;SDS011;12680;57.804;12.190;2024-02-15T12:45:17;5.30;;;3.92;;
24521;SDS011;12680;57.804;12.190;2024-02-15T12:47:51;4.35;;;3.05;;
24521;SDS011;12680;57.804;12.190;2024-02-15T12:50:20;5.20;;;3.38;;
24521;SDS011;12680;57.804;12.190;2024-02-15T12:52:49;4.25;;;3.10;;
24521;SDS011;12680;57.804;12.190;2024-02-15T12:55:17;5.72;;;3.65;;
24521;SDS011;12680;57.804;12.190;2024-02-15T12:57:48;5.25;;;2.92;;
24521;SDS011;12680;57.804;12.190;2024-02-15T13:00:26;4.32;;;3.42;;
24521;SDS011;12680;57.804;12.190;2024-02-15T13:02:58;5.35;;;3.20;;
24521;SDS011;12680;57.804;12.190;2024-02-15T13:05:30;4.45;;;3.25;;
24521;SDS011;12680;57.804;12.190;2024-02-15T13:07:58;4.20;;;3.28;;
24521;SDS011;12680;57.804;12.190;2024-02-15T13:10:25;4.07;;;2.88;;
24521;SDS011;12680;57.804;12.190;2024-02-15T13:12:54;6.30;;;3.60;;
24521;SDS011;12680;57.804;12.190;2024-02-15T13:15:22;6.22;;;3.92;;
24521;SDS011;12680;57.804;12.190;2024-02-15T13:20:22;11.38;;;6.07;;
24521;SDS011;12680;57.804;12.190;2024-02-15T13:23:09;9.80;;;5.97;;
24521;SDS011;12680;57.804;12.190;2024-02-15T13:25:51;6.07;;;4.30;;
24521;SDS011;12680;57.804;12.190;2024-02-15T13:28:19;6.82;;;4.40;;
24521;SDS011;12680;57.804;12.190;2024-02-15T13:30:46;5.35;;;3.88;;
24521;SDS011;12680;57.804;12.190;2024-02-15T13:33:15;5.68;;;3.58;;
24521;SDS011;12680;57.804;12.190;2024-02-15T13:35:43;6.32;;;4.05;;
24521;SDS011;12680;57.804;12.190;2024-02-15T13:38:11;4.95;;;3.72;;
24521;SDS011;12680;57.804;12.190;2024-02-15T13:40:42;4.95;;;3.63;;
24521;SDS011;12680;57.804;12.190;2024-02-15T13:43:11;4.85;;;3.22;;
24521;SDS011;12680;57.804;12.190;2024-02-15T13:45:41;4.50;;;3.47;;
24521;SDS011;12680;57.804;12.190;2024-02-15T13:48:08;4.47;;;3.40;;
24521;SDS011;12680;57.804;12.190;2024-02-15T13:50:36;3.95;;;2.83;;
24521;SDS011;12680;57.804;12.190;2024-02-15T13:53:05;5.30;;;3.90;;
24521;SDS011;12680;57.804;12.190;2024-02-15T13:55:33;5.78;;;4.10;;
24521;SDS011;12680;57.804;12.190;2024-02-15T13:58:00;4.63;;;3.80;;
24521;SDS011;12680;57.804;12.190;2024-02-15T14:00:28;4.80;;;3.25;;
24521;SDS011;12680;57.804;12.190;2024-02-15T14:03:01;4.28;;;3.22;;
24521;SDS011;12680;57.804;12.190;2024-02-15T14:05:29;3.58;;;3.20;;
24521;SDS011;12680;57.804;12.190;2024-02-15T14:08:01;4.63;;;3.30;;
24521;SDS011;12680;57.804;12.190;2024-02-15T14:10:30;5.45;;;3.17;;
24521;SDS011;12680;57.804;12.190;2024-02-15T14:12:58;3.97;;;2.70;;
24521;SDS011;12680;57.804;12.190;2024-02-15T14:15:26;3.25;;;2.70;;
24521;SDS011;12680;57.804;12.190;2024-02-15T14:17:53;4.85;;;2.88;;
24521;SDS011;12680;57.804;12.190;2024-02-15T14:20:20;4.40;;;3.08;;
24521;SDS011;12680;57.804;12.190;2024-02-15T14:22:48;4.00;;;3.13;;
24521;SDS011;12680;57.804;12.190;2024-02-15T14:25:22;3.63;;;2.45;;
24521;SDS011;12680;57.804;12.190;2024-02-15T14:27:49;4.45;;;2.72;;
24521;SDS011;12680;57.804;12.190;2024-02-15T14:30:16;2.75;;;2.55;;
24521;SDS011;12680;57.804;12.190;2024-02-15T14:33:01;4.35;;;3.13;;
24521;SDS011;12680;57.804;12.190;2024-02-15T14:35:35;2.90;;;2.60;;
24521;SDS011;12680;57.804;12.190;2024-02-15T14:38:04;3.03;;;2.55;;
24521;SDS011;12680;57.804;12.190;2024-02-15T14:40:39;3.55;;;2.75;;
24521;SDS011;12680;57.804;12.190;2024-02-15T14:43:11;2.90;;;2.30;;
24521;SDS011;12680;57.804;12.190;2024-02-15T14:45:44;3.08;;;2.38;;
24521;SDS011;12680;57.804;12.190;2024-02-15T14:48:12;2.88;;;2.58;;
24521;SDS011;12680;57.804;12.190;2024-02-15T14:50:40;3.78;;;2.85;;
24521;SDS011;12680;57.804;12.190;2024-02-15T14:53:08;2.95;;;2.25;;
24521;SDS011;12680;57.804;12.190;2024-02-15T14:55:36;2.72;;;2.00;;
24521;SDS011;12680;57.804;12.190;2024-02-15T14:58:06;2.42;;;1.90;;
24521;SDS011;12680;57.804;12.190;2024-02-15T15:00:40;2.88;;;2.45;;
24521;SDS011;12680;57.804;12.190;2024-02-15T15:03:11;2.60;;;2.20;;
24521;SDS011;12680;57.804;12.190;2024-02-15T15:05:40;3.03;;;2.30;;
24521;SDS011;12680;57.804;12.190;2024-02-15T15:08:26;2.58;;;1.63;;
24521;SDS011;12680;57.804;12.190;2024-02-15T15:11:12;2.20;;;1.75;;
24521;SDS011;12680;57.804;12.190;2024-02-15T15:13:57;2.38;;;1.70;;